Terminal Aerodrome Forecast
Issued by NWS

Home | Current Version | Previous Version | Text Only | Print | Product List | Glossary Off
Versions: 1 2 3 4 5 6 7 8 9 10 11 12 13 14 15

973
FTUS43 KICT 281134
TAFSLN
TAF
KSLN 281134Z 2812/2912 27005KT P6SM SCT012
      TEMPO 2812/2814 BKN012
     FM281600 28007KT P6SM SCT025
     FM290000 17005KT P6SM SKC=

USA.gov is the U.S. government's official web portal to all federal, state and local government web resources and services.